Time;durP1;ratioP1;P1;durP2;ratioP2;P2;SDS_P1;SDS_P2;PMS_P1;PMS_P2;Temp;Humidity;BMP_temperature;BMP_pressure;BME280_temperature;BME280_humidity;BME280_pressure;Samples;Min_cycle;Max_cycle;Signal;HPM_P1;HPM_P2
2022/11/14 00:01:38;;;;;;;97.75;52.53;;;;;;;2.45;94.34;101200.41;2004687;87;21112;-87
2022/11/14 00:04:58;;;;;;;142.00;55.17;;;;;;;2.44;94.59;101198.23;2002053;87;21585;-86
2022/11/14 00:08:26;;;;;;;111.90;56.08;;;;;;;2.44;94.43;101195.61;2002389;87;21081;-87
2022/11/14 00:11:46;;;;;;;124.72;57.33;;;;;;;2.43;94.44;101190.00;2003318;88;21125;-86
2022/11/14 00:15:07;;;;;;;145.72;60.25;;;;;;;2.46;94.70;101190.30;2001440;87;21069;-86
2022/11/14 00:18:27;;;;;;;151.63;58.52;;;;;;;2.46;94.66;101185.05;2004008;88;21047;-86
2022/11/14 00:21:46;;;;;;;137.65;55.43;;;;;;;2.44;94.49;101179.89;2002834;87;21095;-87
2022/11/14 00:25:07;;;;;;;143.45;59.30;;;;;;;2.41;94.50;101176.61;2001581;87;21098;-85
2022/11/14 00:28:26;;;;;;;123.85;56.45;;;;;;;2.39;94.45;101171.92;2001875;88;21134;-86
2022/11/14 00:31:46;;;;;;;153.50;58.52;;;;;;;2.37;94.53;101168.56;2001131;87;21085;-86
2022/11/14 00:35:08;;;;;;;132.95;55.58;;;;;;;2.34;94.53;101177.45;2003712;87;21556;-84
2022/11/14 00:38:27;;;;;;;161.28;61.10;;;;;;;2.37;94.58;101182.98;2001909;87;21109;-87
2022/11/14 00:41:47;;;;;;;151.20;60.23;;;;;;;2.37;94.62;101187.74;2002395;87;21059;-83
2022/11/14 00:45:07;;;;;;;127.65;55.30;;;;;;;2.39;94.80;101188.95;2002335;87;21156;-86
2022/11/14 00:48:27;;;;;;;155.67;62.98;;;;;;;2.44;94.78;101188.22;1983322;87;21025;-86
2022/11/14 00:51:46;;;;;;;129.75;62.43;;;;;;;2.46;94.77;101187.67;2002214;87;21169;-85
2022/11/14 00:55:07;;;;;;;144.82;58.85;;;;;;;2.49;94.79;101190.59;2001174;87;21125;-86
2022/11/14 00:58:27;;;;;;;;;;;;;;;2.56;94.88;101193.22;2005954;87;21138;-86
2022/11/14 01:01:47;;;;;;;141.65;58.73;;;;;;;2.57;95.04;101190.99;2002906;87;20205;-86
2022/11/14 01:05:06;;;;;;;156.57;61.90;;;;;;;2.58;94.89;101191.36;2004094;88;21867;-85
2022/11/14 01:08:26;;;;;;;115.70;54.05;;;;;;;2.59;94.85;101188.66;2001660;87;21528;-86
2022/11/14 01:11:45;;;;;;;120.02;55.60;;;;;;;2.59;94.84;101187.36;2003739;88;21039;-86
2022/11/14 01:15:06;;;;;;;162.92;58.78;;;;;;;2.55;94.79;101184.52;2003323;88;21120;-85
2022/11/14 01:18:25;;;;;;;157.10;60.35;;;;;;;2.54;94.84;101176.30;1999254;87;21026;-88
2022/11/14 01:21:45;;;;;;;118.02;58.17;;;;;;;2.50;94.87;101174.77;1987259;88;21126;-85
2022/11/14 01:25:05;;;;;;;129.07;59.93;;;;;;;2.50;94.95;101182.63;1986263;88;21103;-85
2022/11/14 01:28:24;;;;;;;113.37;55.17;;;;;;;2.50;95.00;101176.55;1988968;88;21022;-85
2022/11/14 01:31:44;;;;;;;126.58;59.40;;;;;;;2.50;95.05;101177.38;1986943;88;21154;-85
2022/11/14 01:35:04;;;;;;;120.30;56.75;;;;;;;2.52;95.23;101179.93;1987812;89;21078;-86
2022/11/14 01:38:23;;;;;;;112.72;53.63;;;;;;;2.49;95.22;101173.09;1988333;88;22386;-85
2022/11/14 01:41:43;;;;;;;111.47;52.20;;;;;;;2.47;95.24;101165.77;1989303;88;21576;-86
2022/11/14 01:45:42;;;;;;;115.40;57.20;;;;;;;2.47;95.30;101163.99;1986818;88;21155;-85
2022/11/14 01:49:25;;;;;;;123.72;56.88;;;;;;;2.43;95.33;101153.33;1987005;89;21589;-85
2022/11/14 01:52:45;;;;;;;134.67;56.28;;;;;;;2.49;95.82;101148.67;1986866;89;21110;-84
2022/11/14 01:56:08;;;;;;;138.97;59.08;;;;;;;2.51;95.73;101145.03;1989305;89;21122;-85
2022/11/14 01:59:33;;;;;;;116.10;53.05;;;;;;;2.54;95.83;101139.61;1990987;88;21160;-85
2022/11/14 02:02:53;;;;;;;125.85;53.87;;;;;;;2.54;96.13;101131.75;1986729;88;21106;-86
2022/11/14 02:06:18;;;;;;;92.62;45.78;;;;;;;2.53;95.93;101120.88;1986239;88;21217;-85
2022/11/14 02:09:40;;;;;;;123.65;53.38;;;;;;;2.52;95.82;101115.27;1988404;88;21059;-84
2022/11/14 02:12:59;;;;;;;133.32;54.42;;;;;;;2.53;95.80;101109.08;1987273;89;21645;-86
2022/11/14 02:16:19;;;;;;;164.10;56.58;;;;;;;2.54;96.03;101119.96;1987358;89;21148;-86
2022/11/14 02:19:56;;;;;;;142.93;53.78;;;;;;;2.56;96.23;101111.98;1996215;88;21580;-84
2022/11/14 02:23:26;;;;;;;130.82;53.75;;;;;;;2.58;96.29;101113.59;2004884;87;21050;-85
2022/11/14 02:26:46;;;;;;;132.80;53.20;;;;;;;2.60;96.46;101107.80;2003570;87;21170;-84
2022/11/14 02:30:11;;;;;;;146.28;52.78;;;;;;;2.64;96.51;101114.53;2004940;87;21130;-85
2022/11/14 02:33:30;;;;;;;127.30;52.40;;;;;;;2.67;96.72;101110.41;2003745;87;21074;-85
2022/11/14 02:36:50;;;;;;;150.03;53.45;;;;;;;2.67;96.74;101101.23;2005706;87;22360;-84
2022/11/14 02:40:10;;;;;;;180.18;53.80;;;;;;;2.71;96.70;101108.95;2001787;88;21102;-85
2022/11/14 02:43:30;;;;;;;165.18;54.18;;;;;;;2.74;96.71;101098.27;2003708;87;21672;-83
2022/11/14 02:46:49;;;;;;;165.40;55.40;;;;;;;2.78;96.74;101095.83;2002753;88;21096;-84
2022/11/14 02:50:09;;;;;;;140.52;52.23;;;;;;;2.81;96.92;101089.09;2003540;88;21111;-85
2022/11/14 02:53:29;;;;;;;143.77;52.43;;;;;;;2.86;96.97;101096.21;2001834;87;21142;-84
2022/11/14 02:56:49;;;;;;;143.80;48.52;;;;;;;2.91;96.95;101098.09;2003688;87;21117;-84
2022/11/14 03:00:09;;;;;;;118.75;45.08;;;;;;;2.96;97.12;101098.66;2004590;87;21095;-85
2022/11/14 03:03:29;;;;;;;130.77;49.53;;;;;;;3.00;97.14;101097.52;1984349;87;21127;-84
2022/11/14 03:06:48;;;;;;;126.97;48.55;;;;;;;3.02;97.21;101089.09;2003754;87;21158;-85
2022/11/14 03:10:08;;;;;;;148.57;51.10;;;;;;;3.06;97.36;101085.34;1982542;88;21133;-85
2022/11/14 03:13:31;;;;;;;133.80;48.48;;;;;;;3.07;97.46;101080.48;2002957;88;21034;-85
2022/11/14 03:16:53;;;;;;;147.25;52.95;;;;;;;3.09;97.58;101082.52;2002584;88;21752;-85
2022/11/14 03:20:13;;;;;;;122.42;44.50;;;;;;;3.12;97.68;101082.33;1992285;88;21068;-85
2022/11/14 03:23:33;;;;;;;162.82;52.65;;;;;;;3.13;97.93;101077.48;1988073;88;21088;-85
2022/11/14 03:26:52;;;;;;;151.07;51.53;;;;;;;3.16;97.82;101071.20;1988986;88;21125;-85
2022/11/14 03:30:13;;;;;;;140.73;54.00;;;;;;;3.18;97.86;101068.47;1987338;88;21146;-85
2022/11/14 03:33:34;;;;;;;153.02;49.35;;;;;;;3.22;97.90;101076.53;1988599;88;21123;-84
2022/11/14 03:36:53;;;;;;;151.63;52.25;;;;;;;3.25;97.98;101078.96;1985690;89;21653;-84
2022/11/14 03:40:13;;;;;;;120.95;47.13;;;;;;;3.26;97.98;101068.36;1988934;88;21506;-85
2022/11/14 03:43:33;;;;;;;147.17;53.00;;;;;;;3.27;98.09;101065.29;1989290;88;21112;-85
2022/11/14 03:46:53;;;;;;;142.62;48.87;;;;;;;3.28;98.19;101062.55;1987401;88;21089;-85
2022/11/14 03:50:12;;;;;;;158.82;52.05;;;;;;;3.30;98.11;101066.41;1990027;88;21062;-85
2022/11/14 03:53:32;;;;;;;153.70;53.15;;;;;;;3.32;98.12;101054.01;1986065;88;21097;-85
2022/11/14 03:56:51;;;;;;;148.60;53.20;;;;;;;3.36;98.13;101051.58;1984598;88;21031;-85
2022/11/14 04:00:12;;;;;;;148.40;53.30;;;;;;;3.36;98.15;101050.27;1988067;88;21010;-85
2022/11/14 04:03:32;;;;;;;147.35;53.70;;;;;;;3.39;98.17;101050.55;1988166;88;21114;-86
2022/11/14 04:06:51;;;;;;;128.42;48.40;;;;;;;3.40;98.33;101050.44;1987792;88;21594;-85
2022/11/14 04:10:10;;;;;;;135.20;48.55;;;;;;;3.41;98.32;101048.64;1988544;88;21143;-85
2022/11/14 04:13:30;;;;;;;135.55;51.23;;;;;;;3.43;98.33;101058.11;1984380;89;21182;-85
2022/11/14 04:16:49;;;;;;;145.00;51.08;;;;;;;3.45;98.64;101069.35;1987812;89;21124;-85
2022/11/14 04:20:10;;;;;;;147.95;54.13;;;;;;;3.48;98.51;101063.91;1983675;88;21110;-85
2022/11/14 04:23:30;;;;;;;142.85;51.35;;;;;;;3.50;98.68;101046.30;1980176;88;21122;-84
2022/11/14 04:26:49;;;;;;;124.87;46.53;;;;;;;3.55;98.64;101051.25;1980861;88;21097;-84
2022/11/14 04:30:10;;;;;;;119.02;46.53;;;;;;;3.57;98.73;101050.19;1981236;88;21534;-85
2022/11/14 04:33:30;;;;;;;131.27;50.75;;;;;;;3.56;98.92;101044.58;1978571;88;21110;-85
2022/11/14 04:36:54;;;;;;;127.32;47.15;;;;;;;3.56;98.86;101037.18;1983343;88;21184;-85
2022/11/14 04:40:11;;;;;;;122.15;47.33;;;;;;;3.59;98.86;101036.98;1979154;88;21065;-85
2022/11/14 04:43:31;;;;;;;125.33;48.98;;;;;;;3.59;98.89;101031.25;1968236;89;21065;-84
2022/11/14 04:46:50;;;;;;;130.10;48.40;;;;;;;3.62;98.92;101034.63;1978969;89;21160;-84
2022/11/14 04:50:10;;;;;;;127.00;50.38;;;;;;;3.64;98.97;101040.63;1977267;89;21603;-84
2022/11/14 04:53:29;;;;;;;117.05;47.60;;;;;;;3.65;98.82;101035.27;1980198;88;21078;-84
2022/11/14 04:56:49;;;;;;;122.05;47.33;;;;;;;3.68;99.14;101034.23;1980885;88;21164;-84
2022/11/14 05:00:10;;;;;;;111.42;45.33;;;;;;;3.68;99.26;101039.00;1981984;88;21112;-84
2022/11/14 05:03:29;;;;;;;125.97;47.55;;;;;;;3.69;99.43;101041.15;1978740;88;21051;-84
2022/11/14 05:06:49;;;;;;;128.42;47.75;;;;;;;3.69;99.48;101045.09;1979789;89;21137;-85
2022/11/14 05:10:09;;;;;;;116.33;46.13;;;;;;;3.72;99.37;101038.35;1979319;89;21145;-85
2022/11/14 05:13:29;;;;;;;108.52;45.58;;;;;;;3.75;99.29;101028.96;1977278;88;21106;-85
2022/11/14 05:16:48;;;;;;;104.70;44.30;;;;;;;3.75;99.12;101019.30;1979803;89;21161;-85
2022/11/14 05:20:09;;;;;;;92.33;39.18;;;;;;;3.76;99.12;101016.19;1989877;87;21088;-85
2022/11/14 05:23:29;;;;;;;110.97;44.38;;;;;;;3.74;99.03;101012.81;2003424;87;21105;-83
2022/11/14 05:26:48;;;;;;;93.20;40.80;;;;;;;3.74;99.15;101013.66;2003403;87;21077;-85
2022/11/14 05:30:10;;;;;;;104.72;41.63;;;;;;;3.76;99.07;101011.78;2003260;87;21084;-84
2022/11/14 05:33:30;;;;;;;107.32;45.98;;;;;;;3.78;98.94;101003.81;2002750;87;21038;-84
2022/11/14 05:36:49;;;;;;;102.53;41.73;;;;;;;3.79;98.92;101005.48;2004630;87;21147;-85
2022/11/14 05:40:10;;;;;;;101.40;41.98;;;;;;;3.81;98.83;101004.92;2003957;87;21150;-84
2022/11/14 05:43:32;;;;;;;87.05;38.78;;;;;;;3.79;99.05;100995.82;2003245;87;21086;-85
2022/11/14 05:46:51;;;;;;;102.55;43.23;;;;;;;3.80;99.00;101007.16;2002277;87;21653;-85
2022/11/14 05:50:10;;;;;;;95.97;41.37;;;;;;;3.80;98.93;101005.40;2003070;87;21026;-77
2022/11/14 05:53:36;;;;;;;94.57;43.37;;;;;;;3.81;99.09;101007.08;2001747;87;21084;-80
2022/11/14 05:56:53;;;;;;;91.12;42.30;;;;;;;3.85;98.93;101005.08;1984471;87;21145;-78
2022/11/14 06:00:15;;;;;;;93.25;43.65;;;;;;;3.88;99.00;101010.13;2002645;87;21623;-76
2022/11/14 06:03:40;;;;;;;93.35;42.20;;;;;;;3.90;98.91;101013.50;2004874;87;21101;-80
2022/11/14 06:07:00;;;;;;;95.83;43.23;;;;;;;3.91;98.92;101013.86;2002889;87;21183;-78
2022/11/14 06:10:19;;;;;;;96.40;45.88;;;;;;;3.93;98.88;101020.33;2003727;87;21112;-78
2022/11/14 06:13:43;;;;;;;75.62;34.83;;;;;;;3.93;98.95;101012.45;2004848;88;21126;-78
2022/11/14 06:17:02;;;;;;;86.25;40.33;;;;;;;3.90;98.85;101010.88;2003342;87;21100;-77
2022/11/14 06:20:21;;;;;;;82.57;38.05;;;;;;;3.88;98.90;101016.69;2001586;89;21169;-77
2022/11/14 06:23:44;;;;;;;103.67;53.00;;;;;;;3.85;98.83;101015.58;1984401;87;28562;-78
2022/11/14 06:27:04;;;;;;;87.42;41.42;;;;;;;3.91;98.86;101020.42;2002377;87;21059;-77
2022/11/14 06:30:23;;;;;;;81.17;38.45;;;;;;;3.94;98.75;101027.25;2002607;87;21049;-78
2022/11/14 06:33:47;;;;;;;86.72;38.80;;;;;;;3.89;98.96;101034.63;2003083;87;21521;-78
2022/11/14 06:37:06;;;;;;;81.10;40.00;;;;;;;3.89;99.08;101039.88;2002658;87;21173;-78
2022/11/14 06:40:26;;;;;;;82.00;38.00;;;;;;;3.90;98.96;101041.55;2003470;87;21079;-78
2022/11/14 06:43:51;;;;;;;77.70;37.65;;;;;;;3.91;98.96;101034.02;2002227;87;21076;-78
2022/11/14 06:47:11;;;;;;;77.95;38.95;;;;;;;3.89;98.81;101038.08;2004495;87;21120;-78
2022/11/14 06:50:32;;;;;;;74.15;37.58;;;;;;;3.89;98.82;101039.88;2005449;87;21089;-77
2022/11/14 06:53:52;;;;;;;83.10;38.30;;;;;;;3.91;98.85;101040.11;2003372;87;21095;-80
2022/11/14 06:57:12;;;;;;;76.97;38.08;;;;;;;3.88;99.03;101025.88;2003545;87;21037;-78
2022/11/14 07:00:31;;;;;;;77.47;38.50;;;;;;;3.89;98.97;101017.55;2003494;87;21588;-77
2022/11/14 07:03:51;;;;;;;71.62;34.67;;;;;;;3.91;98.92;101020.42;2003634;87;21070;-75
2022/11/14 07:07:10;;;;;;;78.92;38.08;;;;;;;3.92;98.88;101018.18;2002521;87;21512;-79
2022/11/14 07:10:30;;;;;;;77.45;37.98;;;;;;;3.91;98.95;101015.16;2003516;87;21049;-79
2022/11/14 07:13:57;;;;;;;68.75;32.55;;;;;;;3.95;98.86;101015.35;2002450;87;21086;-79
2022/11/14 07:17:17;;;;;;;67.95;34.58;;;;;;;3.99;98.88;101018.60;2002518;87;21055;-80
2022/11/14 07:20:37;;;;;;;77.12;36.77;;;;;;;3.95;98.62;101010.09;1997700;87;21509;-78
2022/11/14 07:23:57;;;;;;;71.60;35.55;;;;;;;3.98;98.62;100999.39;1992100;88;21557;-77
2022/11/14 07:27:17;;;;;;;70.78;34.38;;;;;;;4.00;98.74;101005.86;1988203;88;21141;-77
2022/11/14 07:30:36;;;;;;;68.80;33.48;;;;;;;4.04;98.83;101006.84;1987142;88;21209;-76
2022/11/14 07:33:56;;;;;;;71.60;33.95;;;;;;;4.28;99.64;100994.33;1985014;88;21097;-75
2022/11/14 07:37:15;;;;;;;64.17;32.80;;;;;;;4.26;98.90;101009.34;1986942;88;21124;-75
2022/11/14 07:40:35;;;;;;;62.93;33.73;;;;;;;4.26;98.54;101005.41;1988857;89;21608;-75
2022/11/14 07:43:54;;;;;;;65.35;33.53;;;;;;;4.26;98.32;101006.72;1987925;88;21100;-75
2022/11/14 07:47:14;;;;;;;67.80;35.58;;;;;;;4.29;98.38;100991.23;1989789;88;21604;-76
2022/11/14 07:50:34;;;;;;;60.98;34.00;;;;;;;4.26;98.23;100992.27;1986251;89;21107;-75
2022/11/14 07:53:53;;;;;;;68.00;35.00;;;;;;;4.27;98.21;100988.21;1989002;89;21744;-75
2022/11/14 07:57:13;;;;;;;67.70;32.80;;;;;;;4.32;98.27;100993.64;1987623;88;21596;-75
2022/11/14 08:00:32;;;;;;;62.70;31.37;;;;;;;4.33;98.19;100994.00;1986875;88;21502;-75
2022/11/14 08:03:52;;;;;;;64.72;33.15;;;;;;;4.31;98.14;100990.63;1989329;88;21561;-75
2022/11/14 08:07:11;;;;;;;67.95;35.92;;;;;;;4.31;98.09;100995.43;1985888;88;21137;-75
2022/11/14 08:10:31;;;;;;;62.48;31.60;;;;;;;4.31;98.09;100982.30;1989146;89;21512;-77
2022/11/14 08:13:50;;;;;;;60.05;32.17;;;;;;;4.34;98.18;100988.65;1987559;88;21209;-76
2022/11/14 08:17:10;;;;;;;57.98;29.20;;;;;;;4.35;98.01;100970.61;1993229;89;21125;-73
2022/11/14 08:20:29;;;;;;;61.63;33.38;;;;;;;4.39;98.03;100971.23;1990750;88;21582;-76
2022/11/14 08:23:49;;;;;;;64.20;32.75;;;;;;;4.35;97.85;100967.15;2004612;87;21169;-77
2022/11/14 08:27:08;;;;;;;59.77;32.58;;;;;;;4.35;97.89;100949.59;2004002;87;21155;-77
2022/11/14 08:30:28;;;;;;;66.77;34.48;;;;;;;4.35;97.86;100943.02;2003056;87;21117;-75
2022/11/14 08:33:53;;;;;;;67.55;34.48;;;;;;;4.41;98.11;100947.84;2005139;87;21173;-75
2022/11/14 08:37:13;;;;;;;62.10;31.97;;;;;;;4.48;98.05;100942.55;2004566;87;21122;-75
2022/11/14 08:40:32;;;;;;;66.95;34.45;;;;;;;4.52;97.80;100949.73;2003288;87;22097;-75
2022/11/14 08:43:53;;;;;;;67.10;34.58;;;;;;;4.56;97.85;100952.53;2002991;87;21215;-74
2022/11/14 08:47:15;;;;;;;64.85;33.65;;;;;;;4.64;97.84;100950.66;2001976;87;21066;-76
2022/11/14 08:50:34;;;;;;;62.73;33.50;;;;;;;4.68;97.83;100944.25;2003373;87;21205;-76
2022/11/14 08:53:54;;;;;;;68.42;34.33;;;;;;;4.67;97.63;100935.97;2002105;87;21166;-76
2022/11/14 08:57:15;;;;;;;61.50;34.10;;;;;;;4.70;97.61;100937.07;2003132;87;21496;-75
2022/11/14 09:00:35;;;;;;;64.22;33.45;;;;;;;4.75;97.68;100927.55;2003627;87;21141;-74
2022/11/14 09:03:54;;;;;;;66.02;34.43;;;;;;;4.71;97.71;100912.48;2003941;87;21119;-76
2022/11/14 09:07:14;;;;;;;67.97;34.58;;;;;;;4.89;97.59;100930.86;2003464;87;21047;-75
2022/11/14 09:10:34;;;;;;;69.12;36.30;;;;;;;4.91;97.21;100942.13;2002574;88;21156;-76
2022/11/14 09:13:53;;;;;;;62.20;34.40;;;;;;;4.94;97.18;100937.12;2003928;87;21049;-76
2022/11/14 09:17:13;;;;;;;61.95;32.42;;;;;;;4.98;97.24;100928.52;2004254;87;22789;-76
2022/11/14 09:20:32;;;;;;;59.50;33.00;;;;;;;5.05;97.33;100924.52;2001662;87;21224;-76
2022/11/14 09:23:52;;;;;;;66.57;37.55;;;;;;;5.07;97.15;100924.77;1996138;87;21109;-77
2022/11/14 09:27:13;;;;;;;63.75;34.98;;;;;;;5.14;97.22;100918.58;1996647;88;21073;-77
2022/11/14 09:30:36;;;;;;;;;;;;;;;5.21;97.11;100919.82;1998713;87;21104;-77
2022/11/14 09:33:55;;;;;;;65.67;35.15;;;;;;;5.25;96.90;100916.48;1994069;87;20162;-77
2022/11/14 09:37:15;;;;;;;68.92;37.08;;;;;;;5.29;96.74;100905.59;1996150;87;21098;-77
2022/11/14 09:40:45;;;;;;;63.40;37.10;;;;;;;5.36;96.45;100916.52;1996235;87;21118;-77
2022/11/14 09:44:28;;;;;;;69.67;36.58;;;;;;;5.39;96.37;100902.66;1994011;88;21189;-77
2022/11/14 09:48:06;;;;;;;63.35;35.33;;;;;;;5.51;96.55;100896.94;1994561;87;21098;-77
2022/11/14 09:51:31;;;;;;;64.85;34.55;;;;;;;5.66;96.61;100888.39;1994708;88;21137;-77
2022/11/14 09:54:58;;;;;;;63.73;35.48;;;;;;;5.89;96.39;100881.84;1995333;87;21039;-77
2022/11/14 09:58:20;;;;;;;59.65;33.53;;;;;;;6.33;96.79;100878.88;1995357;87;21092;-76
2022/11/14 10:01:54;;;;;;;56.20;32.65;;;;;;;6.66;95.87;100876.20;1996721;87;21645;-77
2022/11/14 10:05:45;;;;;;;50.23;31.27;;;;;;;6.93;93.65;100860.44;1993873;87;21094;-76
2022/11/14 10:09:25;;;;;;;57.73;32.80;;;;;;;7.24;92.20;100848.69;1995727;87;21225;-77
2022/11/14 10:13:03;;;;;;;54.08;31.73;;;;;;;7.59;92.66;100843.08;1996983;87;21099;-77
2022/11/14 10:16:40;;;;;;;50.30;31.02;;;;;;;8.03;92.66;100848.53;1981345;88;21161;-76
2022/11/14 10:20:11;;;;;;;49.95;31.75;;;;;;;8.28;90.70;100853.02;1994010;87;21217;-74
2022/11/14 10:23:48;;;;;;;46.65;28.95;;;;;;;8.53;90.80;100841.13;1994879;87;21694;-76
2022/11/14 10:27:19;;;;;;;46.63;29.18;;;;;;;8.84;90.06;100845.88;1995033;87;21148;-75
2022/11/14 10:30:47;;;;;;;45.17;28.12;;;;;;;8.94;88.01;100839.25;1996307;87;21160;-74
2022/11/14 10:34:45;;;;;;;46.05;28.40;;;;;;;9.03;86.78;100838.41;1994903;87;21094;-74
2022/11/14 10:38:10;;;;;;;42.27;27.25;;;;;;;9.14;85.77;100835.62;1997552;88;21029;-75
2022/11/14 10:41:33;;;;;;;41.40;27.07;;;;;;;9.26;85.58;100832.33;1996314;87;21028;-76
2022/11/14 10:45:26;;;;;;;44.42;27.85;;;;;;;9.30;84.22;100833.73;1996275;87;21148;-76
2022/11/14 10:48:49;;;;;;;42.50;26.35;;;;;;;9.45;86.37;100826.19;1994041;88;21658;-76
2022/11/14 10:52:18;;;;;;;43.45;28.40;;;;;;;9.72;83.38;100828.58;1995835;87;21633;-76
2022/11/14 10:55:37;;;;;;;39.73;24.50;;;;;;;9.90;86.20;100811.42;1996617;88;21134;-76
2022/11/14 10:58:56;;;;;;;41.25;26.05;;;;;;;10.19;85.32;100802.86;1994505;88;21048;-75
2022/11/14 11:02:16;;;;;;;37.93;25.43;;;;;;;10.27;84.87;100800.31;1994305;87;21228;-75
2022/11/14 11:05:56;;;;;;;42.40;27.35;;;;;;;10.32;83.52;100799.87;1995423;87;21106;-74
2022/11/14 11:13:00;;;;;;;42.00;25.82;;;;;;;10.36;80.33;100789.80;1995539;87;21105;-74
2022/11/14 11:16:25;;;;;;;39.45;25.48;;;;;;;10.52;82.67;100795.28;1995118;87;21088;-74
2022/11/14 11:19:47;;;;;;;40.35;25.72;;;;;;;10.70;80.31;100797.94;1996423;87;21683;-75
2022/11/14 11:23:19;;;;;;;42.83;26.60;;;;;;;10.74;81.51;100782.08;1963434;88;21138;-75
2022/11/14 11:26:38;;;;;;;;;;;;;;;10.90;80.98;100780.91;1964395;90;21406;-74
2022/11/14 11:30:22;;;;;;;42.13;27.17;;;;;;;11.01;81.16;100786.47;1963927;90;20224;-75
2022/11/14 11:33:44;;;;;;;40.25;25.15;;;;;;;11.09;79.98;100771.91;1962491;90;21193;-75
2022/11/14 11:37:24;;;;;;;39.53;26.45;;;;;;;11.09;79.44;100760.45;1947728;90;21170;-75
2022/11/14 11:40:48;;;;;;;43.08;24.60;;;;;;;11.06;77.76;100756.78;1962704;90;21073;-75
2022/11/14 11:44:12;;;;;;;41.05;25.57;;;;;;;11.01;77.48;100757.27;1959918;90;21207;-75
2022/11/14 11:47:35;;;;;;;34.33;23.42;;;;;;;11.17;77.80;100752.05;1958086;90;21095;-75
2022/11/14 11:50:56;;;;;;;37.05;24.37;;;;;;;11.22;76.92;100749.77;1961782;90;21067;-74
2022/11/14 11:54:21;;;;;;;41.60;24.18;;;;;;;11.33;78.14;100744.70;1957311;90;21108;-74
2022/11/14 11:58:17;;;;;;;37.08;24.37;;;;;;;11.45;77.13;100743.93;1960339;90;21159;-75
2022/11/14 12:01:37;;;;;;;38.90;24.10;;;;;;;11.53;77.44;100741.83;1960691;90;21044;-74
2022/11/14 12:05:00;;;;;;;39.83;23.35;;;;;;;11.52;75.98;100734.86;1961563;90;21583;-74
2022/11/14 12:08:29;;;;;;;46.60;24.65;;;;;;;11.55;76.80;100729.22;1960212;90;21163;-74
2022/11/14 12:12:00;;;;;;;39.15;23.38;;;;;;;11.67;76.26;100728.77;1955647;90;21144;-73
2022/11/14 12:15:23;;;;;;;;;;;;;;;11.73;75.50;100735.78;1961447;90;21589;-75
2022/11/14 12:18:54;;;;;;;38.42;23.38;;;;;;;11.67;74.68;100731.43;1959838;90;20527;-74
2022/11/14 12:23:10;;;;;;;35.13;21.33;;;;;;;11.64;74.20;100727.77;1969633;88;21096;-74
2022/11/14 12:27:02;;;;;;;32.48;21.05;;;;;;;11.76;75.90;100719.50;1989796;88;21088;-74
2022/11/14 12:30:25;;;;;;;35.40;21.20;;;;;;;11.92;73.30;100720.11;1987584;88;21205;-75
2022/11/14 12:33:59;;;;;;;32.45;22.15;;;;;;;11.89;73.84;100710.63;1986579;88;21104;-76
2022/11/14 12:37:34;;;;;;;34.92;22.40;;;;;;;11.90;74.63;100716.27;1986212;89;21081;-74
2022/11/14 12:40:58;;;;;;;33.70;21.80;;;;;;;11.95;74.86;100709.97;1990214;88;21212;-75
2022/11/14 12:44:33;;;;;;;33.80;21.87;;;;;;;12.03;74.53;100705.19;1988085;89;21108;-74
2022/11/14 12:48:28;;;;;;;30.95;21.02;;;;;;;12.06;72.79;100708.34;1989257;88;21049;-74
2022/11/14 12:51:50;;;;;;;31.40;21.93;;;;;;;11.99;72.16;100704.66;1962293;89;21687;-74
2022/11/14 12:55:33;;;;;;;33.60;23.10;;;;;;;11.91;72.66;100705.98;1985263;88;21059;-75
2022/11/14 12:59:21;;;;;;;31.17;21.52;;;;;;;11.89;71.67;100702.65;1989436;88;21062;-75
2022/11/14 13:02:58;;;;;;;30.70;22.40;;;;;;;11.84;72.27;100691.63;1988652;88;21647;-74
2022/11/14 13:06:38;;;;;;;35.30;22.65;;;;;;;11.85;71.10;100694.61;1987266;89;21067;-74
2022/11/14 13:10:12;;;;;;;32.95;21.77;;;;;;;11.82;72.33;100690.94;1987157;88;21059;-73
2022/11/14 13:25:04;;;;;;;35.10;23.95;;;;;;;11.67;72.43;100680.92;1992398;88;21374;-74
2022/11/14 13:28:48;;;;;;;29.87;21.70;;;;;;;11.73;72.58;100683.94;1988707;88;21096;-77
2022/11/14 13:32:12;;;;;;;31.23;21.52;;;;;;;11.89;72.92;100675.55;1990189;88;21107;-75
2022/11/14 13:35:40;;;;;;;35.55;22.00;;;;;;;11.87;71.55;100670.06;1991371;88;21103;-74
2022/11/14 13:39:20;;;;;;;30.20;20.88;;;;;;;11.75;72.05;100669.50;1988546;88;21723;-75
2022/11/14 13:43:18;;;;;;;28.63;20.23;;;;;;;11.66;71.99;100665.16;1988509;88;21684;-75
2022/11/14 13:47:03;;;;;;;34.25;21.27;;;;;;;11.58;72.15;100657.14;1991084;88;21093;-75
2022/11/14 13:50:38;;;;;;;31.85;20.30;;;;;;;11.49;72.39;100648.30;1989537;88;21107;-73
2022/11/14 13:53:59;;;;;;;32.28;19.67;;;;;;;11.45;72.38;100650.93;1993266;88;21259;-75
2022/11/14 13:57:44;;;;;;;36.45;20.60;;;;;;;11.38;72.55;100651.25;1988403;88;21658;-74
2022/11/14 14:01:26;;;;;;;30.40;20.00;;;;;;;11.31;72.48;100648.37;1987750;88;21077;-73
2022/11/14 14:14:04;;;;;;;31.30;21.70;;;;;;;11.21;73.26;100643.19;2299056;75;22544;-73
2022/11/14 14:17:54;;;;;;;28.45;19.37;;;;;;;11.12;73.29;100637.97;2297524;77;21087;-74
2022/11/14 14:21:27;;;;;;;28.07;19.30;;;;;;;11.07;73.49;100636.31;2295181;77;21089;-75
2022/11/14 14:25:07;;;;;;;30.75;20.27;;;;;;;10.97;73.68;100629.27;2298152;77;21533;-75
2022/11/14 14:28:47;;;;;;;32.70;20.20;;;;;;;10.90;73.71;100628.23;2299560;77;21062;-75
2022/11/14 14:32:17;;;;;;;28.32;19.65;;;;;;;10.80;73.90;100628.00;2296619;77;21002;-76
2022/11/14 14:35:38;;;;;;;28.40;19.17;;;;;;;10.70;74.01;100626.28;2272962;77;21106;-74
2022/11/14 14:39:21;;;;;;;26.93;18.95;;;;;;;10.61;74.22;100620.55;2298512;77;20981;-75
2022/11/14 14:42:45;;;;;;;24.82;18.98;;;;;;;10.53;74.32;100622.67;2297662;77;21086;-75
2022/11/14 14:46:08;;;;;;;26.60;17.95;;;;;;;10.44;74.49;100618.27;2299965;77;20979;-75
2022/11/14 14:49:37;;;;;;;24.92;17.30;;;;;;;10.35;74.46;100618.38;2293315;77;21046;-74
2022/11/14 14:53:01;;;;;;;25.55;18.37;;;;;;;10.23;74.67;100615.92;2301700;76;21066;-76
2022/11/14 14:56:24;;;;;;;23.30;16.17;;;;;;;10.15;74.86;100621.15;2304373;77;21042;-76
2022/11/14 14:59:44;;;;;;;20.95;16.05;;;;;;;10.07;74.89;100615.27;2304250;77;21136;-76
2022/11/14 15:03:10;;;;;;;25.85;16.70;;;;;;;9.96;74.86;100619.47;2298600;75;21355;-76
2022/11/14 15:06:37;;;;;;;25.57;17.77;;;;;;;9.84;75.02;100620.67;2299441;77;21129;-78
2022/11/14 15:10:01;;;;;;;26.10;16.42;;;;;;;9.72;75.21;100615.26;2301420;77;21082;-74
2022/11/14 15:13:24;;;;;;;23.77;17.12;;;;;;;9.61;75.34;100617.13;2299804;77;21058;-76
2022/11/14 15:16:49;;;;;;;22.32;16.17;;;;;;;9.54;75.57;100610.73;2307174;77;21470;-75
2022/11/14 15:20:26;;;;;;;22.00;16.10;;;;;;;9.47;75.67;100611.49;2299536;77;21030;-76
2022/11/14 15:23:45;;;;;;;30.15;19.77;;;;;;;9.39;75.77;100610.89;2305438;77;21103;-74
2022/11/14 15:27:19;;;;;;;30.10;19.95;;;;;;;9.28;75.89;100600.00;2304113;77;21008;-76
2022/11/14 15:30:39;;;;;;;35.85;22.37;;;;;;;9.12;75.94;100595.81;2304318;77;21148;-74
2022/11/14 15:34:21;;;;;;;30.90;18.70;;;;;;;8.99;76.01;100596.16;2297569;77;21009;-74
2022/11/14 15:38:05;;;;;;;35.98;20.20;;;;;;;8.81;76.14;100593.91;2299756;77;21362;-74
2022/11/14 15:41:29;;;;;;;30.25;19.40;;;;;;;8.63;76.23;100595.97;2300747;77;21929;-75
2022/11/14 15:44:52;;;;;;;29.90;20.40;;;;;;;8.50;76.66;100604.22;2302720;77;21054;-77
2022/11/14 15:48:17;;;;;;;29.67;18.35;;;;;;;8.39;76.85;100598.22;2303215;77;21073;-76
2022/11/14 15:51:54;;;;;;;30.70;18.82;;;;;;;8.27;77.31;100600.16;2260681;78;21068;-75
2022/11/14 15:55:22;;;;;;;34.83;21.70;;;;;;;8.19;77.72;100594.23;2262788;78;21022;-76
2022/11/14 15:58:42;;;;;;;67.70;40.50;;;;;;;8.13;77.71;100591.33;2258315;78;21086;-75
2022/11/14 16:02:25;;;;;;;61.53;35.80;;;;;;;8.04;77.92;100588.54;2259285;77;21068;-76